Time,TemperatureF,DewpointF,PressureIn,WindDirection,WindDirectionDegrees,WindSpeedMPH,WindSpeedGustMPH,Humidity,HourlyPrecipIn,Conditions,Clouds,dailyrainin,SoftwareType,DateUTC
2013-02-13 00:00:00,23.8,18.3,29.08,West,270,2.5,2.9,79,0.00,,,0.00,WUHU216HW,2013-02-13 06:00:00,
2013-02-13 00:05:00,23.8,18.3,29.08,WNW,293,3.4,3.4,79,0.00,,,0.00,WUHU216HW,2013-02-13 06:05:00,
2013-02-13 00:10:00,23.8,18.5,29.08,West,270,2.2,3.4,80,0.00,,,0.00,WUHU216HW,2013-02-13 06:10:00,
2013-02-13 00:15:00,23.9,18.7,29.08,West,270,1.8,3.4,80,0.00,,,0.00,WUHU216HW,2013-02-13 06:15:00,
2013-02-13 00:20:00,23.8,18.5,29.08,West,270,1.8,4.0,80,0.00,,,0.00,WUHU216HW,2013-02-13 06:20:00,
2013-02-13 00:25:00,23.9,18.7,29.08,West,270,1.8,4.0,80,0.00,,,0.00,WUHU216HW,2013-02-13 06:25:00,
2013-02-13 00:30:00,23.8,18.5,29.08,West,270,1.8,3.4,80,0.00,,,0.00,WUHU216HW,2013-02-13 06:30:00,
2013-02-13 00:35:00,23.8,18.3,29.08,West,270,1.8,2.5,79,0.00,,,0.00,WUHU216HW,2013-02-13 06:35:00,
2013-02-13 00:40:00,23.8,18.3,29.08,WNW,293,1.1,2.2,79,0.00,,,0.00,WUHU216HW,2013-02-13 06:40:00,
2013-02-13 00:45:00,23.4,17.9,29.08,West,270,0.7,1.8,79,0.00,,,0.00,WUHU216HW,2013-02-13 06:45:00,
2013-02-13 00:50:00,23.4,17.9,29.08,WSW,248,0.9,1.8,79,0.00,,,0.00,WUHU216HW,2013-02-13 06:50:00,
2013-02-13 00:55:00,23.4,17.9,29.07,West,270,1.3,1.3,79,0.00,,,0.00,WUHU216HW,2013-02-13 06:55:00,
2013-02-13 01:00:00,23.4,17.9,29.07,West,270,1.1,2.7,79,0.00,,,0.00,WUHU216HW,2013-02-13 07:00:00,
2013-02-13 01:05:00,23.4,17.9,29.07,West,270,1.8,2.7,79,0.00,,,0.00,WUHU216HW,2013-02-13 07:05:00,
2013-02-13 01:10:00,23.4,17.9,29.07,NW,315,1.8,2.5,79,0.00,,,0.00,WUHU216HW,2013-02-13 07:10:00,
2013-02-13 01:15:00,23.4,17.9,29.06,West,270,1.8,2.5,79,0.00,,,0.00,WUHU216HW,2013-02-13 07:15:00,
2013-02-13 01:20:00,23.6,18.4,29.06,WNW,293,1.3,2.5,80,0.00,,,0.00,WUHU216HW,2013-02-13 07:20:00,
2013-02-13 01:25:00,23.6,18.4,29.06,West,270,0.4,1.6,80,0.00,,,0.00,WUHU216HW,2013-02-13 07:25:00,
2013-02-13 01:30:00,23.4,18.2,29.06,WNW,293,0.4,1.1,80,0.00,,,0.00,WUHU216HW,2013-02-13 07:30:00,
2013-02-13 01:35:00,23.4,18.2,29.06,WNW,293,1.6,1.6,80,0.00,,,0.00,WUHU216HW,2013-02-13 07:35:00,
2013-02-13 01:40:00,23.2,18.0,29.06,West,270,1.1,2.0,80,0.00,,,0.00,WUHU216HW,2013-02-13 07:40:00,
2013-02-13 01:45:00,23.0,17.8,29.06,WNW,293,1.3,2.0,80,0.00,,,0.00,WUHU216HW,2013-02-13 07:45:00,
2013-02-13 01:50:00,22.9,17.6,29.06,West,270,0.9,1.8,80,0.00,,,0.00,WUHU216HW,2013-02-13 07:50:00,
2013-02-13 01:55:00,22.7,17.5,29.06,West,270,1.1,1.6,80,0.00,,,0.00,WUHU216HW,2013-02-13 07:55:00,
2013-02-13 02:00:00,22.7,17.5,29.06,West,270,1.1,1.6,80,0.00,,,0.00,WUHU216HW,2013-02-13 08:00:00,
2013-02-13 02:05:00,22.9,17.6,29.06,West,270,1.8,1.8,80,0.00,,,0.00,WUHU216HW,2013-02-13 08:05:00,
2013-02-13 02:10:00,23.0,17.8,29.05,West,270,1.1,2.0,80,0.00,,,0.00,WUHU216HW,2013-02-13 08:10:00,
2013-02-13 02:15:00,23.0,17.8,29.05,WNW,293,2.2,2.2,80,0.00,,,0.00,WUHU216HW,2013-02-13 08:15:00,
2013-02-13 02:20:00,23.4,18.2,29.05,West,270,3.4,3.4,80,0.00,,,0.00,WUHU216HW,2013-02-13 08:20:00,
2013-02-13 02:25:00,23.4,18.2,29.05,West,270,0.9,3.4,80,0.00,,,0.00,WUHU216HW,2013-02-13 08:25:00,
2013-02-13 02:30:00,23.6,18.4,29.05,West,270,1.8,3.4,80,0.00,,,0.00,WUHU216HW,2013-02-13 08:30:00,
2013-02-13 02:35:00,23.8,18.5,29.05,WNW,293,0.9,3.1,80,0.00,,,0.00,WUHU216HW,2013-02-13 08:35:00,
2013-02-13 02:40:00,23.8,18.5,29.05,WNW,293,2.5,3.4,80,0.00,,,0.00,WUHU216HW,2013-02-13 08:40:00,
2013-02-13 02:45:00,23.9,18.7,29.05,West,270,1.1,3.4,80,0.00,,,0.00,WUHU216HW,2013-02-13 08:45:00,
2013-02-13 02:50:00,23.9,18.7,29.05,WNW,293,0.9,2.5,80,0.00,,,0.00,WUHU216HW,2013-02-13 08:50:00,
2013-02-13 02:55:00,23.9,18.7,29.05,WNW,293,0.4,2.2,80,0.00,,,0.00,WUHU216HW,2013-02-13 08:55:00,
2013-02-13 03:00:00,23.8,18.5,29.05,WNW,293,1.3,2.2,80,0.00,,,0.00,WUHU216HW,2013-02-13 09:00:00,
2013-02-13 03:05:00,23.6,18.4,29.05,WNW,293,1.3,1.6,80,0.00,,,0.00,WUHU216HW,2013-02-13 09:05:00,
2013-02-13 03:10:00,23.6,18.6,29.05,WNW,293,1.8,1.8,81,0.00,,,0.00,WUHU216HW,2013-02-13 09:10:00,
2013-02-13 03:15:00,23.4,18.5,29.05,WNW,293,1.1,1.8,81,0.00,,,0.00,WUHU216HW,2013-02-13 09:15:00,
2013-02-13 03:20:00,23.4,18.5,29.05,West,270,0.9,1.8,81,0.00,,,0.00,WUHU216HW,2013-02-13 09:20:00,
2013-02-13 03:25:00,23.4,18.5,29.05,NW,315,0.9,1.3,81,0.00,,,0.00,WUHU216HW,2013-02-13 09:25:00,
2013-02-13 03:30:00,23.0,18.1,29.05,West,270,1.6,1.6,81,0.00,,,0.00,WUHU216HW,2013-02-13 09:30:00,
2013-02-13 03:35:00,22.9,17.9,29.05,West,270,0.2,1.6,81,0.00,,,0.00,WUHU216HW,2013-02-13 09:35:00,
2013-02-13 03:40:00,22.7,17.7,29.05,WNW,293,0.7,1.3,81,0.00,,,0.00,WUHU216HW,2013-02-13 09:40:00,
2013-02-13 03:45:00,22.5,17.6,29.04,NNE,23,0.0,0.9,81,0.00,,,0.00,WUHU216HW,2013-02-13 09:45:00,
2013-02-13 03:50:00,22.1,17.2,29.04,WNW,293,1.1,1.1,81,0.00,,,0.00,WUHU216HW,2013-02-13 09:50:00,
2013-02-13 03:55:00,22.0,17.3,29.04,WNW,293,1.1,1.1,82,0.00,,,0.00,WUHU216HW,2013-02-13 09:55:00,
2013-02-13 04:00:00,22.0,17.3,29.04,West,270,2.2,2.2,82,0.00,,,0.00,WUHU216HW,2013-02-13 10:00:00,
2013-02-13 04:05:00,22.0,17.3,29.04,West,270,2.7,2.7,82,0.00,,,0.00,WUHU216HW,2013-02-13 10:05:00,
2013-02-13 04:10:00,22.0,17.3,29.04,WNW,293,2.5,2.7,82,0.00,,,0.00,WUHU216HW,2013-02-13 10:10:00,
2013-02-13 04:15:00,22.0,17.3,29.04,West,270,2.0,2.7,82,0.00,,,0.00,WUHU216HW,2013-02-13 10:15:00,
2013-02-13 04:20:00,22.0,17.3,29.05,West,270,2.9,2.9,82,0.00,,,0.00,WUHU216HW,2013-02-13 10:20:00,
2013-02-13 04:25:00,21.8,17.1,29.04,West,270,2.2,2.9,82,0.00,,,0.00,WUHU216HW,2013-02-13 10:25:00,
2013-02-13 04:30:00,21.8,17.1,29.04,West,270,2.0,2.9,82,0.00,,,0.00,WUHU216HW,2013-02-13 10:30:00,
2013-02-13 04:35:00,21.6,16.9,29.03,WNW,293,0.7,2.9,82,0.00,,,0.00,WUHU216HW,2013-02-13 10:35:00,
2013-02-13 04:40:00,21.6,16.9,29.03,West,270,2.0,3.1,82,0.00,,,0.00,WUHU216HW,2013-02-13 10:40:00,
2013-02-13 04:45:00,21.6,16.9,29.03,West,270,2.2,4.0,82,0.00,,,0.00,WUHU216HW,2013-02-13 10:45:00,
2013-02-13 04:50:00,21.6,16.9,29.03,WSW,248,3.1,4.0,82,0.00,,,0.00,WUHU216HW,2013-02-13 10:50:00,
2013-02-13 04:55:00,21.8,17.1,29.03,WNW,293,2.5,4.3,82,0.00,,,0.00,WUHU216HW,2013-02-13 10:55:00,
2013-02-13 05:00:00,21.8,17.1,29.03,WNW,293,1.6,4.3,82,0.00,,,0.00,WUHU216HW,2013-02-13 11:00:00,
2013-02-13 05:05:00,21.8,17.1,29.03,WNW,293,0.7,3.4,82,0.00,,,0.00,WUHU216HW,2013-02-13 11:05:00,
2013-02-13 05:10:00,21.6,16.9,29.03,West,270,1.8,2.7,82,0.00,,,0.00,WUHU216HW,2013-02-13 11:10:00,
2013-02-13 05:15:00,21.8,17.1,29.03,West,270,1.8,2.9,82,0.00,,,0.00,WUHU216HW,2013-02-13 11:15:00,
2013-02-13 05:20:00,21.8,17.1,29.03,WNW,293,1.6,2.9,82,0.00,,,0.00,WUHU216HW,2013-02-13 11:20:00,
2013-02-13 05:25:00,21.8,17.1,29.03,WNW,293,1.1,2.5,82,0.00,,,0.00,WUHU216HW,2013-02-13 11:25:00,
2013-02-13 05:30:00,22.0,17.3,29.02,West,270,1.1,2.5,82,0.00,,,0.00,WUHU216HW,2013-02-13 11:30:00,
2013-02-13 05:35:00,21.8,17.1,29.02,NW,315,1.6,2.5,82,0.00,,,0.00,WUHU216HW,2013-02-13 11:35:00,
2013-02-13 05:40:00,21.8,17.1,29.02,NW,315,0.4,1.6,82,0.00,,,0.00,WUHU216HW,2013-02-13 11:40:00,
2013-02-13 05:45:00,21.8,17.1,29.02,NW,315,0.0,1.3,82,0.00,,,0.00,WUHU216HW,2013-02-13 11:45:00,
2013-02-13 05:49:00,21.8,17.4,29.02,WNW,293,0.9,1.3,83,0.00,,,0.00,WUHU216HW,2013-02-13 11:49:00,
2013-02-13 05:55:00,21.8,17.4,29.02,West,270,0.2,2.5,83,0.00,,,0.00,WUHU216HW,2013-02-13 11:55:00,
2013-02-13 06:00:00,22.0,17.6,29.02,WNW,293,0.9,2.5,83,0.00,,,0.00,WUHU216HW,2013-02-13 12:00:00,
2013-02-13 06:05:00,21.8,17.4,29.02,West,270,0.4,1.8,83,0.00,,,0.00,WUHU216HW,2013-02-13 12:05:00,
2013-02-13 06:10:00,21.8,17.4,29.02,WNW,293,0.4,1.8,83,0.00,,,0.00,WUHU216HW,2013-02-13 12:10:00,
2013-02-13 06:15:00,21.8,17.4,29.02,WNW,293,0.4,1.8,83,0.00,,,0.00,WUHU216HW,2013-02-13 12:15:00,
2013-02-13 06:20:00,22.0,17.6,29.02,WNW,293,1.6,1.6,83,0.00,,,0.00,WUHU216HW,2013-02-13 12:20:00,
2013-02-13 06:25:00,21.8,17.4,29.01,West,270,0.7,1.6,83,0.00,,,0.00,WUHU216HW,2013-02-13 12:25:00,
2013-02-13 06:30:00,21.8,17.4,29.01,WNW,293,0.4,0.7,83,0.00,,,0.00,WUHU216HW,2013-02-13 12:30:00,
2013-02-13 06:35:00,21.6,17.2,29.01,WNW,293,0.2,0.9,83,0.00,,,0.00,WUHU216HW,2013-02-13 12:35:00,
2013-02-13 06:39:00,21.6,17.2,29.01,WNW,293,0.0,0.9,83,0.00,,,0.00,WUHU216HW,2013-02-13 12:39:00,
2013-02-13 06:44:00,21.6,17.2,29.01,West,270,0.7,0.7,83,0.00,,,0.00,WUHU216HW,2013-02-13 12:44:00,
2013-02-13 06:49:00,21.6,17.2,29.01,WNW,293,0.9,0.9,83,0.00,,,0.00,WUHU216HW,2013-02-13 12:49:00,
2013-02-13 06:54:00,22.0,17.6,29.01,WNW,293,0.7,1.1,83,0.00,,,0.00,WUHU216HW,2013-02-13 12:54:00,
2013-02-13 06:59:00,22.0,17.6,29.01,WNW,293,1.1,1.1,83,0.00,,,0.00,WUHU216HW,2013-02-13 12:59:00,
2013-02-13 07:04:00,22.1,17.7,29.01,WNW,293,1.1,1.8,83,0.00,,,0.00,WUHU216HW,2013-02-13 13:04:00,
2013-02-13 07:09:00,22.3,17.9,29.01,West,270,1.3,2.0,83,0.00,,,0.00,WUHU216HW,2013-02-13 13:09:00,
2013-02-13 07:14:00,22.7,18.3,29.01,West,270,1.3,2.0,83,0.00,,,0.00,WUHU216HW,2013-02-13 13:14:00,
2013-02-13 07:19:00,22.7,18.3,29.00,WNW,293,0.4,1.3,83,0.00,,,0.00,WUHU216HW,2013-02-13 13:19:00,
2013-02-13 07:24:00,22.9,18.5,29.00,WNW,293,0.4,1.1,83,0.00,,,0.00,WUHU216HW,2013-02-13 13:24:00,
2013-02-13 07:29:00,22.9,18.5,29.00,West,270,1.6,1.6,83,0.00,,,0.00,WUHU216HW,2013-02-13 13:29:00,
2013-02-13 07:34:00,23.0,18.6,29.00,WNW,293,0.4,1.6,83,0.00,,,0.00,WUHU216HW,2013-02-13 13:34:00,
2013-02-13 07:39:00,23.0,18.4,29.00,WNW,293,0.4,2.2,82,0.00,,,0.00,WUHU216HW,2013-02-13 13:39:00,
2013-02-13 07:44:00,23.2,18.5,29.00,WNW,293,0.4,2.2,82,0.00,,,0.00,WUHU216HW,2013-02-13 13:44:00,
2013-02-13 07:49:00,23.2,18.5,29.00,NNW,338,0.0,1.1,82,0.00,,,0.00,WUHU216HW,2013-02-13 13:49:00,
2013-02-13 07:54:00,23.4,18.7,29.00,ESE,113,0.0,0.0,82,0.00,,,0.00,WUHU216HW,2013-02-13 13:54:00,
2013-02-13 07:59:00,23.4,18.7,29.00,WNW,293,0.0,1.8,82,0.00,,,0.00,WUHU216HW,2013-02-13 13:59:00,
2013-02-13 08:04:00,23.4,18.7,29.00,WNW,293,0.7,1.8,82,0.00,,,0.00,WUHU216HW,2013-02-13 14:04:00,
2013-02-13 08:09:00,23.4,18.7,29.00,WNW,293,0.7,0.7,82,0.00,,,0.00,WUHU216HW,2013-02-13 14:09:00,
2013-02-13 08:14:00,23.4,18.7,29.00,East,90,0.2,0.9,82,0.00,,,0.00,WUHU216HW,2013-02-13 14:14:00,
2013-02-13 08:19:00,23.4,18.7,29.00,WNW,293,0.9,1.1,82,0.00,,,0.00,WUHU216HW,2013-02-13 14:19:00,
2013-02-13 08:24:00,23.6,18.9,29.00,SW,225,0.4,1.1,82,0.00,,,0.00,WUHU216HW,2013-02-13 14:24:00,
2013-02-13 08:29:00,23.8,19.1,29.00,WNW,293,2.2,3.4,82,0.00,,,0.00,WUHU216HW,2013-02-13 14:29:00,
2013-02-13 08:34:00,23.9,19.3,29.00,West,270,1.8,3.4,82,0.00,,,0.00,WUHU216HW,2013-02-13 14:34:00,
2013-02-13 08:39:00,23.9,19.0,29.00,NNW,338,0.4,2.2,81,0.00,,,0.00,WUHU216HW,2013-02-13 14:39:00,
2013-02-13 08:44:00,23.9,19.0,29.00,WNW,293,0.2,1.8,81,0.00,,,0.00,WUHU216HW,2013-02-13 14:44:00,
2013-02-13 08:49:00,24.1,19.2,29.00,West,270,1.1,1.8,81,0.00,,,0.00,WUHU216HW,2013-02-13 14:49:00,
2013-02-13 08:54:00,24.8,19.9,29.00,WNW,293,0.2,1.8,81,0.00,,,0.00,WUHU216HW,2013-02-13 14:54:00,
2013-02-13 08:59:00,25.6,20.5,29.00,WNW,293,1.8,2.2,81,0.00,,,0.00,WUHU216HW,2013-02-13 14:59:00,
2013-02-13 09:04:00,26.8,22.0,29.00,WNW,293,1.1,2.2,82,0.00,,,0.00,WUHU216HW,2013-02-13 15:04:00,
2013-02-13 09:09:00,27.4,21.7,28.99,WNW,293,0.9,2.9,79,0.00,,,0.00,WUHU216HW,2013-02-13 15:09:00,
2013-02-13 09:14:00,27.2,21.2,28.99,WNW,293,1.1,2.9,78,0.00,,,0.00,WUHU216HW,2013-02-13 15:14:00,
2013-02-13 09:19:00,27.0,21.0,28.99,North,0,0.0,1.1,78,0.00,,,0.00,WUHU216HW,2013-02-13 15:19:00,
2013-02-13 09:24:00,27.4,21.7,28.99,NNW,338,0.4,0.9,79,0.00,,,0.00,WUHU216HW,2013-02-13 15:24:00,
2013-02-13 09:29:00,27.5,21.5,28.99,North,0,0.4,1.3,78,0.00,,,0.00,WUHU216HW,2013-02-13 15:29:00,
2013-02-13 09:34:00,27.7,21.7,28.99,SW,225,1.8,1.8,78,0.00,,,0.00,WUHU216HW,2013-02-13 15:34:00,
2013-02-13 09:39:00,27.9,21.6,28.99,NW,315,0.9,1.8,77,0.00,,,0.00,WUHU216HW,2013-02-13 15:39:00,
2013-02-13 09:44:00,27.7,21.1,28.99,East,90,0.9,1.8,76,0.00,,,0.00,WUHU216HW,2013-02-13 15:44:00,
2013-02-13 09:49:00,27.4,20.7,28.99,WNW,293,2.0,3.1,76,0.00,,,0.00,WUHU216HW,2013-02-13 15:49:00,
2013-02-13 09:54:00,27.5,20.9,28.99,NW,315,2.5,3.1,76,0.00,,,0.00,WUHU216HW,2013-02-13 15:54:00,
2013-02-13 09:59:00,28.1,21.4,28.99,WNW,293,2.5,3.1,76,0.00,,,0.00,WUHU216HW,2013-02-13 15:59:00,
2013-02-13 10:04:00,28.4,21.8,28.99,NNW,338,2.7,3.1,76,0.00,,,0.00,WUHU216HW,2013-02-13 16:04:00,
2013-02-13 10:09:00,28.4,21.8,28.99,NNW,338,1.8,3.4,76,0.00,,,0.00,WUHU216HW,2013-02-13 16:09:00,
2013-02-13 10:14:00,28.8,22.1,28.99,WNW,293,4.3,4.3,76,0.00,,,0.00,WUHU216HW,2013-02-13 16:14:00,
2013-02-13 10:19:00,28.8,21.9,28.99,West,270,1.1,4.3,75,0.00,,,0.00,WUHU216HW,2013-02-13 16:19:00,
2013-02-13 10:24:00,29.2,22.5,28.99,WNW,293,1.3,2.7,76,0.00,,,0.00,WUHU216HW,2013-02-13 16:24:00,
2013-02-13 10:29:00,29.7,22.7,28.99,North,0,1.1,1.8,75,0.00,,,0.00,WUHU216HW,2013-02-13 16:29:00,
2013-02-13 10:34:00,29.9,22.6,28.98,NNW,338,3.4,4.3,74,0.00,,,0.00,WUHU216HW,2013-02-13 16:34:00,
2013-02-13 10:39:00,29.9,22.6,28.99,North,0,0.4,4.3,74,0.00,,,0.00,WUHU216HW,2013-02-13 16:39:00,
2013-02-13 10:44:00,30.1,22.8,28.98,WNW,293,1.6,3.8,74,0.00,,,0.00,WUHU216HW,2013-02-13 16:44:00,
2013-02-13 10:49:00,30.6,23.6,28.98,WNW,293,2.5,3.8,75,0.00,,,0.00,WUHU216HW,2013-02-13 16:49:00,
2013-02-13 10:54:00,30.6,23.2,28.99,NW,315,1.6,3.4,74,0.00,,,0.00,WUHU216HW,2013-02-13 16:54:00,
2013-02-13 10:59:00,30.6,23.2,28.99,West,270,3.4,3.4,74,0.00,,,0.00,WUHU216HW,2013-02-13 16:59:00,
2013-02-13 11:04:00,31.0,23.9,28.99,West,270,3.4,3.4,75,0.00,,,0.00,WUHU216HW,2013-02-13 17:04:00,
2013-02-13 11:09:00,31.5,24.1,28.99,NW,315,4.7,4.7,74,0.00,,,0.00,WUHU216HW,2013-02-13 17:09:00,
2013-02-13 11:14:00,31.3,23.7,28.99,WNW,293,2.7,4.7,73,0.00,,,0.00,WUHU216HW,2013-02-13 17:14:00,
2013-02-13 11:19:00,32.0,24.4,28.99,West,270,3.1,3.1,73,0.00,,,0.00,WUHU216HW,2013-02-13 17:19:00,
2013-02-13 11:24:00,32.0,24.4,28.99,WNW,293,2.0,3.4,73,0.00,,,0.00,WUHU216HW,2013-02-13 17:24:00,
2013-02-13 11:29:00,32.6,24.8,28.99,NW,315,1.1,4.5,73,0.00,,,0.00,WUHU216HW,2013-02-13 17:29:00,
2013-02-13 11:34:00,33.1,24.7,28.98,WSW,248,1.8,8.1,71,0.00,,,0.00,WUHU216HW,2013-02-13 17:34:00,
2013-02-13 11:39:00,33.3,24.8,28.98,WNW,293,1.1,8.1,71,0.00,,,0.00,WUHU216HW,2013-02-13 17:39:00,
2013-02-13 11:44:00,33.8,25.4,28.98,WNW,293,3.1,4.7,71,0.00,,,0.00,WUHU216HW,2013-02-13 17:44:00,
2013-02-13 11:49:00,34.9,26.7,28.97,WNW,293,3.8,4.0,72,0.00,,,0.00,WUHU216HW,2013-02-13 17:49:00,
2013-02-13 11:54:00,35.6,27.2,28.97,NNW,338,2.2,3.8,71,0.00,,,0.00,WUHU216HW,2013-02-13 17:54:00,
2013-02-13 11:59:00,35.8,27.0,28.97,West,270,2.2,3.1,70,0.00,,,0.00,WUHU216HW,2013-02-13 17:59:00,
2013-02-13 12:04:00,36.4,27.2,28.97,WNW,293,1.8,3.1,69,0.00,,,0.00,WUHU216HW,2013-02-13 18:04:00,
2013-02-13 12:09:00,36.5,27.7,28.97,NW,315,0.7,2.7,70,0.00,,,0.00,WUHU216HW,2013-02-13 18:09:00,
2013-02-13 12:14:00,37.4,28.3,28.96,NW,315,2.9,2.9,69,0.00,,,0.00,WUHU216HW,2013-02-13 18:14:00,
2013-02-13 12:19:00,37.6,28.0,28.96,East,90,0.4,2.9,68,0.00,,,0.00,WUHU216HW,2013-02-13 18:19:00,
2013-02-13 12:24:00,38.0,28.4,28.95,NNW,338,1.6,2.5,68,0.00,,,0.00,WUHU216HW,2013-02-13 18:24:00,
2013-02-13 12:29:00,38.3,28.3,28.95,WSW,248,0.7,2.5,67,0.00,,,0.00,WUHU216HW,2013-02-13 18:29:00,
2013-02-13 12:34:00,38.2,27.7,28.95,WSW,248,1.8,4.0,66,0.00,,,0.00,WUHU216HW,2013-02-13 18:34:00,
2013-02-13 12:39:00,38.2,28.2,28.95,WNW,293,2.2,4.0,67,0.00,,,0.00,WUHU216HW,2013-02-13 18:39:00,
2013-02-13 12:44:00,38.5,28.4,28.95,West,270,1.3,2.5,67,0.00,,,0.00,WUHU216HW,2013-02-13 18:44:00,
2013-02-13 12:49:00,38.9,28.5,28.95,WNW,293,0.4,2.9,66,0.00,,,0.00,WUHU216HW,2013-02-13 18:49:00,
2013-02-13 12:54:00,39.2,28.7,28.95,WNW,293,1.8,4.0,66,0.00,,,0.00,WUHU216HW,2013-02-13 18:54:00,
2013-02-13 12:59:00,39.6,29.1,28.95,WNW,293,0.9,4.0,66,0.00,,,0.00,WUHU216HW,2013-02-13 18:59:00,
2013-02-13 13:04:00,40.3,30.2,28.94,WNW,293,1.8,3.4,67,0.00,,,0.00,WUHU216HW,2013-02-13 19:04:00,
2013-02-13 13:09:00,40.3,29.8,28.94,WNW,293,1.8,3.1,66,0.00,,,0.00,WUHU216HW,2013-02-13 19:09:00,
2013-02-13 13:14:00,40.7,29.8,28.94,WNW,293,4.3,4.3,65,0.01,,,0.00,WUHU216HW,2013-02-13 19:14:00,
2013-02-13 13:19:00,40.9,30.0,28.94,WSW,248,3.4,5.8,65,0.01,,,0.00,WUHU216HW,2013-02-13 19:19:00,
2013-02-13 13:24:00,40.5,29.3,28.94,NNE,23,2.7,5.8,64,0.01,,,0.00,WUHU216HW,2013-02-13 19:24:00,
2013-02-13 13:29:00,40.7,29.4,28.94,SSE,158,3.1,4.0,64,0.01,,,0.00,WUHU216HW,2013-02-13 19:29:00,
2013-02-13 13:34:00,40.7,29.1,28.93,WNW,293,2.9,7.2,63,0.01,,,0.00,WUHU216HW,2013-02-13 19:34:00,
2013-02-13 13:39:00,40.9,29.3,28.93,WNW,293,4.0,7.2,63,0.01,,,0.00,WUHU216HW,2013-02-13 19:39:00,
2013-02-13 13:44:00,40.7,29.1,28.93,NNW,338,4.3,4.5,63,0.01,,,0.00,WUHU216HW,2013-02-13 19:44:00,
2013-02-13 13:49:00,40.1,28.5,28.93,NNE,23,1.1,4.5,63,0.01,,,0.00,WUHU216HW,2013-02-13 19:49:00,
2013-02-13 13:54:00,40.0,28.7,28.93,West,270,3.4,3.4,64,0.01,,,0.00,WUHU216HW,2013-02-13 19:54:00,
2013-02-13 13:59:00,40.7,30.2,28.92,West,270,2.0,3.8,66,0.01,,,0.00,WUHU216HW,2013-02-13 19:59:00,
2013-02-13 14:04:00,41.6,31.1,28.92,WNW,293,3.4,5.8,66,0.01,,,0.00,WUHU216HW,2013-02-13 20:04:00,
2013-02-13 14:09:00,42.3,31.8,28.92,West,270,3.4,5.8,66,0.01,,,0.00,WUHU216HW,2013-02-13 20:09:00,
2013-02-13 14:14:00,42.7,31.3,28.92,WNW,293,2.2,4.7,64,0.00,,,0.00,WUHU216HW,2013-02-13 20:14:00,
2013-02-13 14:19:00,42.8,31.5,28.92,WNW,293,1.8,4.7,64,0.00,,,0.00,WUHU216HW,2013-02-13 20:19:00,
2013-02-13 14:24:00,42.8,31.5,28.92,WNW,293,2.7,4.5,64,0.00,,,0.00,WUHU216HW,2013-02-13 20:24:00,
2013-02-13 14:29:00,42.7,30.9,28.92,WNW,293,2.0,3.4,63,0.00,,,0.00,WUHU216HW,2013-02-13 20:29:00,
2013-02-13 14:34:00,42.5,30.7,28.92,WSW,248,2.0,3.1,63,0.00,,,0.00,WUHU216HW,2013-02-13 20:34:00,
2013-02-13 14:39:00,42.5,30.7,28.92,WNW,293,3.1,3.6,63,0.00,,,0.00,WUHU216HW,2013-02-13 20:39:00,
2013-02-13 14:44:00,42.5,30.7,28.92,WNW,293,2.5,3.6,63,0.00,,,0.00,WUHU216HW,2013-02-13 20:44:00,
2013-02-13 14:49:00,42.3,30.6,28.92,West,270,2.7,3.1,63,0.00,,,0.00,WUHU216HW,2013-02-13 20:49:00,
2013-02-13 14:54:00,41.4,29.3,28.92,WSW,248,2.5,2.7,62,0.00,,,0.00,WUHU216HW,2013-02-13 20:54:00,
2013-02-13 14:59:00,40.9,29.3,28.92,WNW,293,1.1,2.5,63,0.00,,,0.00,WUHU216HW,2013-02-13 20:59:00,
2013-02-13 15:04:00,41.0,29.4,28.93,West,270,2.2,4.0,63,0.00,,,0.00,WUHU216HW,2013-02-13 21:04:00,
2013-02-13 15:09:00,41.2,30.3,28.92,West,270,3.6,4.3,65,0.00,,,0.00,WUHU216HW,2013-02-13 21:09:00,
2013-02-13 15:14:00,41.4,30.2,28.93,WNW,293,2.5,4.3,64,0.00,,,0.00,WUHU216HW,2013-02-13 21:14:00,
2013-02-13 15:19:00,41.0,29.8,28.93,NNW,338,2.5,4.3,64,0.00,,,0.00,WUHU216HW,2013-02-13 21:19:00,
2013-02-13 15:24:00,40.5,29.3,28.93,WSW,248,2.0,4.0,64,0.00,,,0.00,WUHU216HW,2013-02-13 21:24:00,
2013-02-13 15:29:00,40.0,29.1,28.93,WNW,293,2.5,4.3,65,0.00,,,0.00,WUHU216HW,2013-02-13 21:29:00,
2013-02-13 15:34:00,40.1,29.6,28.93,WNW,293,2.9,4.3,66,0.00,,,0.00,WUHU216HW,2013-02-13 21:34:00,
2013-02-13 15:39:00,40.3,29.8,28.93,WNW,293,0.7,2.9,66,0.00,,,0.00,WUHU216HW,2013-02-13 21:39:00,
2013-02-13 15:44:00,40.3,29.8,28.92,NNE,23,0.4,2.7,66,0.00,,,0.00,WUHU216HW,2013-02-13 21:44:00,
2013-02-13 15:49:00,40.0,28.7,28.92,SW,225,0.9,2.7,64,0.00,,,0.00,WUHU216HW,2013-02-13 21:49:00,
2013-02-13 15:54:00,39.1,28.2,28.92,WNW,293,0.4,2.7,65,0.00,,,0.00,WUHU216HW,2013-02-13 21:54:00,
2013-02-13 15:59:00,38.5,28.1,28.92,West,270,2.2,2.9,66,0.00,,,0.00,WUHU216HW,2013-02-13 21:59:00,
2013-02-13 16:04:00,38.5,28.4,28.92,NW,315,1.6,2.9,67,0.01,,,0.02,WUHU216HW,2013-02-13 22:04:00,
2013-02-13 16:09:00,38.3,28.3,28.92,WNW,293,1.8,1.8,67,0.01,,,0.02,WUHU216HW,2013-02-13 22:09:00,
2013-02-13 16:14:00,38.5,28.4,28.92,NW,315,2.5,2.5,67,0.01,,,0.02,WUHU216HW,2013-02-13 22:14:00,
2013-02-13 16:19:00,38.2,28.2,28.92,WNW,293,4.0,4.0,67,0.01,,,0.02,WUHU216HW,2013-02-13 22:19:00,
2013-02-13 16:24:00,37.8,28.2,28.92,SW,225,1.1,4.0,68,0.01,,,0.02,WUHU216HW,2013-02-13 22:24:00,
2013-02-13 16:29:00,37.4,28.3,28.92,West,270,0.9,2.5,69,0.01,,,0.02,WUHU216HW,2013-02-13 22:29:00,
2013-02-13 16:34:00,37.3,28.1,28.92,WNW,293,0.4,1.8,69,0.01,,,0.02,WUHU216HW,2013-02-13 22:34:00,
2013-02-13 16:39:00,37.3,28.4,28.92,WNW,293,0.4,1.3,70,0.01,,,0.02,WUHU216HW,2013-02-13 22:39:00,
2013-02-13 16:44:00,36.9,28.5,28.92,NNW,338,0.2,1.8,71,0.01,,,0.02,WUHU216HW,2013-02-13 22:44:00,
2013-02-13 16:49:00,36.7,28.3,28.92,West,270,1.1,1.8,71,0.01,,,0.02,WUHU216HW,2013-02-13 22:49:00,
2013-02-13 16:54:00,36.4,28.2,28.92,West,270,0.9,2.9,72,0.01,,,0.02,WUHU216HW,2013-02-13 22:54:00,
2013-02-13 16:59:00,36.2,28.4,28.92,SSE,158,1.1,2.9,73,0.01,,,0.02,WUHU216HW,2013-02-13 22:59:00,
2013-02-13 17:04:00,35.8,28.0,28.92,WNW,293,0.7,3.1,73,0.00,,,0.02,WUHU216HW,2013-02-13 23:04:00,
2013-02-13 17:09:00,35.6,27.8,28.92,SE,135,0.2,3.1,73,0.00,,,0.02,WUHU216HW,2013-02-13 23:09:00,
2013-02-13 17:14:00,35.6,27.8,28.91,SSW,203,0.0,1.8,73,0.00,,,0.02,WUHU216HW,2013-02-13 23:14:00,
2013-02-13 17:19:00,35.5,27.9,28.91,SSE,158,0.0,1.8,74,0.00,,,0.02,WUHU216HW,2013-02-13 23:19:00,
2013-02-13 17:24:00,35.5,27.9,28.91,SSW,203,1.3,1.3,74,0.00,,,0.02,WUHU216HW,2013-02-13 23:24:00,
2013-02-13 17:29:00,35.3,28.1,28.91,SE,135,0.9,1.3,75,0.00,,,0.02,WUHU216HW,2013-02-13 23:29:00,
2013-02-13 17:34:00,35.1,27.9,28.91,SSE,158,1.1,1.3,75,0.00,,,0.02,WUHU216HW,2013-02-13 23:34:00,
2013-02-13 17:39:00,34.9,28.1,28.91,SE,135,0.9,1.3,76,0.00,,,0.02,WUHU216HW,2013-02-13 23:39:00,
2013-02-13 17:44:00,34.9,28.4,28.91,SSE,158,0.9,1.1,77,0.00,,,0.02,WUHU216HW,2013-02-13 23:44:00,
2013-02-13 17:49:00,34.7,28.2,28.91,SE,135,0.4,0.9,77,0.00,,,0.02,WUHU216HW,2013-02-13 23:49:00,
2013-02-13 17:54:00,34.6,28.4,28.91,SE,135,0.2,1.1,78,0.00,,,0.02,WUHU216HW,2013-02-13 23:54:00,
2013-02-13 17:59:00,34.4,28.2,28.91,SE,135,0.9,1.1,78,0.00,,,0.02,WUHU216HW,2013-02-13 23:59:00,
2013-02-13 18:04:00,34.2,28.0,28.90,SE,135,0.4,0.9,78,0.00,,,0.02,WUHU216HW,2013-02-14 00:04:00,
2013-02-13 18:09:00,34.2,28.3,28.91,SE,135,0.4,0.7,79,0.00,,,0.02,WUHU216HW,2013-02-14 00:09:00,
2013-02-13 18:14:00,34.0,28.4,28.91,SE,135,0.7,0.9,80,0.00,,,0.02,WUHU216HW,2013-02-14 00:14:00,
2013-02-13 18:19:00,33.8,28.3,28.91,SE,135,0.9,0.9,80,0.00,,,0.02,WUHU216HW,2013-02-14 00:19:00,
2013-02-13 18:24:00,33.8,28.3,28.90,SE,135,0.7,0.9,80,0.00,,,0.02,WUHU216HW,2013-02-14 00:24:00,
2013-02-13 18:29:00,33.7,28.4,28.90,SE,135,0.2,0.7,81,0.00,,,0.02,WUHU216HW,2013-02-14 00:29:00,
2013-02-13 18:34:00,33.7,28.7,28.90,SE,135,0.2,0.7,82,0.00,,,0.02,WUHU216HW,2013-02-14 00:34:00,
2013-02-13 18:39:00,33.5,28.3,28.90,SE,135,0.4,0.7,81,0.00,,,0.02,WUHU216HW,2013-02-14 00:39:00,
2013-02-13 18:44:00,33.5,28.5,28.90,SE,135,0.4,0.7,82,0.00,,,0.02,WUHU216HW,2013-02-14 00:44:00,
2013-02-13 18:49:00,33.5,28.5,28.90,SE,135,0.4,0.9,82,0.00,,,0.02,WUHU216HW,2013-02-14 00:49:00,
2013-02-13 18:54:00,33.3,28.6,28.90,SE,135,0.4,0.9,83,0.00,,,0.02,WUHU216HW,2013-02-14 00:54:00,
2013-02-13 18:59:00,33.3,28.6,28.90,SE,135,0.7,0.7,83,0.00,,,0.02,WUHU216HW,2013-02-14 00:59:00,
2013-02-13 19:04:00,33.1,28.4,28.90,SE,135,0.0,0.7,83,0.00,,,0.02,WUHU216HW,2013-02-14 01:04:00,
2013-02-13 19:09:00,33.1,28.4,28.90,SE,135,0.4,0.4,83,0.00,,,0.02,WUHU216HW,2013-02-14 01:09:00,
2013-02-13 19:14:00,33.1,28.8,28.90,SE,135,0.4,0.4,84,0.00,,,0.02,WUHU216HW,2013-02-14 01:14:00,
2013-02-13 19:19:00,33.1,28.8,28.90,SE,135,0.0,0.4,84,0.00,,,0.02,WUHU216HW,2013-02-14 01:19:00,
2013-02-13 19:24:00,33.1,28.8,28.90,SE,135,0.0,0.4,84,0.00,,,0.02,WUHU216HW,2013-02-14 01:24:00,
2013-02-13 19:29:00,33.1,29.1,28.90,SE,135,0.0,0.4,85,0.00,,,0.02,WUHU216HW,2013-02-14 01:29:00,
2013-02-13 19:34:00,33.1,29.1,28.90,SE,135,0.0,0.0,85,0.00,,,0.02,WUHU216HW,2013-02-14 01:34:00,
2013-02-13 19:39:00,33.1,29.1,28.89,SE,135,0.0,0.0,85,0.00,,,0.02,WUHU216HW,2013-02-14 01:39:00,
2013-02-13 19:44:00,33.1,29.1,28.89,SE,135,0.0,0.0,85,0.00,,,0.02,WUHU216HW,2013-02-14 01:44:00,
2013-02-13 19:49:00,33.1,29.3,28.89,SE,135,0.0,0.0,86,0.00,,,0.02,WUHU216HW,2013-02-14 01:49:00,
2013-02-13 19:54:00,32.8,29.0,28.89,SE,135,0.0,0.0,86,0.00,,,0.02,WUHU216HW,2013-02-14 01:54:00,
2013-02-13 19:59:00,32.8,29.0,28.89,SE,135,0.0,0.0,86,0.00,,,0.02,WUHU216HW,2013-02-14 01:59:00,
2013-02-13 20:04:00,32.8,29.0,28.88,SE,135,0.0,0.0,86,0.00,,,0.02,WUHU216HW,2013-02-14 02:04:00,
2013-02-13 20:09:00,32.6,29.2,28.88,SE,135,0.0,0.0,87,0.00,,,0.02,WUHU216HW,2013-02-14 02:09:00,
2013-02-13 20:14:00,32.6,29.2,28.88,SE,135,0.0,0.0,87,0.00,,,0.02,WUHU216HW,2013-02-14 02:14:00,
2013-02-13 20:19:00,32.6,29.2,28.88,SE,135,0.0,0.0,87,0.00,,,0.02,WUHU216HW,2013-02-14 02:19:00,
2013-02-13 20:24:00,32.6,29.2,28.88,SE,135,0.0,0.0,87,0.00,,,0.02,WUHU216HW,2013-02-14 02:24:00,
2013-02-13 20:29:00,32.4,29.3,28.87,SE,135,0.0,0.0,88,0.00,,,0.02,WUHU216HW,2013-02-14 02:29:00,
2013-02-13 20:34:00,32.4,29.3,28.87,SE,135,0.0,0.0,88,0.00,,,0.02,WUHU216HW,2013-02-14 02:34:00,
2013-02-13 20:39:00,32.4,29.3,28.87,SE,135,0.0,0.0,88,0.00,,,0.02,WUHU216HW,2013-02-14 02:39:00,
2013-02-13 20:44:00,32.4,29.3,28.87,SE,135,0.0,0.0,88,0.00,,,0.02,WUHU216HW,2013-02-14 02:44:00,
2013-02-13 20:49:00,32.4,29.3,28.87,SE,135,0.0,0.0,88,0.00,,,0.02,WUHU216HW,2013-02-14 02:49:00,
2013-02-13 20:54:00,32.4,29.3,28.87,SE,135,0.0,0.0,88,0.00,,,0.02,WUHU216HW,2013-02-14 02:54:00,
2013-02-13 20:59:00,32.4,29.5,28.87,SE,135,0.0,0.0,89,0.00,,,0.02,WUHU216HW,2013-02-14 02:59:00,
2013-02-13 21:04:00,32.4,29.5,28.87,SE,135,0.0,0.0,89,0.00,,,0.02,WUHU216HW,2013-02-14 03:04:00,
2013-02-13 21:09:00,32.4,29.5,28.87,SE,135,0.0,0.0,89,0.00,,,0.02,WUHU216HW,2013-02-14 03:09:00,
2013-02-13 21:14:00,32.4,29.5,28.87,SE,135,0.0,0.0,89,0.00,,,0.02,WUHU216HW,2013-02-14 03:14:00,
2013-02-13 21:19:00,32.4,29.5,28.87,SE,135,0.0,0.0,89,0.00,,,0.02,WUHU216HW,2013-02-14 03:19:00,
2013-02-13 21:24:00,32.2,29.4,28.87,SE,135,0.0,0.0,89,0.00,,,0.02,WUHU216HW,2013-02-14 03:24:00,
2013-02-13 21:29:00,32.2,29.4,28.87,SE,135,0.0,0.0,89,0.00,,,0.02,WUHU216HW,2013-02-14 03:29:00,
2013-02-13 21:34:00,32.2,29.7,28.87,SE,135,0.0,0.0,90,0.00,,,0.02,WUHU216HW,2013-02-14 03:34:00,
2013-02-13 21:39:00,32.2,29.7,28.87,SE,135,0.0,0.0,90,0.00,,,0.02,WUHU216HW,2013-02-14 03:39:00,
2013-02-13 21:44:00,32.2,29.7,28.87,SE,135,0.0,0.0,90,0.00,,,0.02,WUHU216HW,2013-02-14 03:44:00,
2013-02-13 21:49:00,32.2,30.0,28.87,SE,135,0.0,0.0,91,0.00,,,0.02,WUHU216HW,2013-02-14 03:49:00,
2013-02-13 21:54:00,32.0,29.8,28.87,SE,135,0.0,0.0,91,0.00,,,0.02,WUHU216HW,2013-02-14 03:54:00,
2013-02-13 21:59:00,32.0,30.1,28.87,SE,135,0.0,0.0,92,0.00,,,0.02,WUHU216HW,2013-02-14 03:59:00,
2013-02-13 22:04:00,32.0,30.1,28.87,SE,135,0.0,0.0,92,0.00,,,0.02,WUHU216HW,2013-02-14 04:04:00,
2013-02-13 22:09:00,32.0,30.1,28.87,SE,135,0.0,0.0,92,0.00,,,0.02,WUHU216HW,2013-02-14 04:09:00,
2013-02-13 22:14:00,32.0,30.1,28.87,SE,135,0.0,0.0,92,0.00,,,0.02,WUHU216HW,2013-02-14 04:14:00,
2013-02-13 22:19:00,32.0,29.8,28.87,SE,135,0.0,0.0,91,0.00,,,0.02,WUHU216HW,2013-02-14 04:19:00,
2013-02-13 22:24:00,32.0,30.1,28.87,SE,135,0.0,0.0,92,0.00,,,0.02,WUHU216HW,2013-02-14 04:24:00,
2013-02-13 22:30:00,32.0,30.1,28.87,SE,135,0.0,0.0,92,0.00,,,0.02,WUHU216HW,2013-02-14 04:30:00,
2013-02-13 22:34:00,32.0,29.8,28.87,SE,135,0.0,0.0,91,0.00,,,0.02,WUHU216HW,2013-02-14 04:34:00,
2013-02-13 22:39:00,32.0,29.8,28.87,SE,135,0.0,0.0,91,0.00,,,0.02,WUHU216HW,2013-02-14 04:39:00,
2013-02-13 22:44:00,32.0,29.8,28.87,SE,135,0.0,0.0,91,0.00,,,0.02,WUHU216HW,2013-02-14 04:44:00,
2013-02-13 22:49:00,32.0,29.8,28.87,SE,135,0.0,0.0,91,0.00,,,0.02,WUHU216HW,2013-02-14 04:49:00,
2013-02-13 22:54:00,32.0,29.8,28.87,SE,135,0.0,0.0,91,0.00,,,0.02,WUHU216HW,2013-02-14 04:54:00,
2013-02-13 22:59:00,32.0,29.8,28.88,SE,135,0.0,0.0,91,0.00,,,0.02,WUHU216HW,2013-02-14 04:59:00,
2013-02-13 23:00:00,32.0,29.8,28.88,SE,135,0.0,0.0,91,0.00,,,0.02,WUHU216HW,2013-02-14 05:00:00,
2013-02-13 23:05:00,32.0,29.8,28.88,SE,135,0.0,0.0,91,0.00,,,0.02,WUHU216HW,2013-02-14 05:05:00,
2013-02-13 23:10:00,32.0,29.8,28.88,SE,135,0.0,0.0,91,0.00,,,0.02,WUHU216HW,2013-02-14 05:10:00,
2013-02-13 23:15:00,32.0,30.1,28.88,SE,135,0.0,0.0,92,0.00,,,0.02,WUHU216HW,2013-02-14 05:15:00,
2013-02-13 23:20:00,32.0,30.1,28.88,SE,135,0.0,0.0,92,0.00,,,0.02,WUHU216HW,2013-02-14 05:20:00,
2013-02-13 23:25:00,32.0,30.1,28.89,SE,135,0.0,0.0,92,0.00,,,0.02,WUHU216HW,2013-02-14 05:25:00,
2013-02-13 23:30:00,32.0,30.1,28.89,SE,135,0.0,0.0,92,0.00,,,0.02,WUHU216HW,2013-02-14 05:30:00,
2013-02-13 23:35:00,32.0,30.1,28.89,SE,135,0.0,0.0,92,0.00,,,0.02,WUHU216HW,2013-02-14 05:35:00,
2013-02-13 23:40:00,32.0,29.8,28.89,SE,135,0.0,0.0,91,0.00,,,0.02,WUHU216HW,2013-02-14 05:40:00,
2013-02-13 23:45:00,32.0,29.8,28.89,SE,135,0.0,0.0,91,0.00,,,0.02,WUHU216HW,2013-02-14 05:45:00,
2013-02-13 23:50:00,32.0,29.8,28.90,SE,135,0.0,0.0,91,0.00,,,0.02,WUHU216HW,2013-02-14 05:50:00,
2013-02-13 23:55:00,32.0,29.8,28.90,SE,135,0.0,0.0,91,0.00,,,0.02,WUHU216HW,2013-02-14 05:55:00,